Far Rockaway, NY (11692)

12:48 PM EDT on August 28, 2016 (GMT -0400)
Atlantic Beach | | Change Station

Elev 0 ft 40.59 °N, 73.74 °W | Updated 13 minutes ago

Scattered Clouds
Scattered Clouds
83.3 °F
Feels Like 89 °F
N
1.9
Wind Variable Wind from SE
Gusts 5.6 mph

Today
High -- | Low -- °F
--% Chance of Precip.
Yesterday
High -- | Low -- °F
Precip. -- in
Pressure 30.27 in
Visibility 10.0 miles
Clouds Few 4000 ft
Scattered Clouds 25000 ft
Heat Index 89 °F
Dew Point 73 °F
Humidity 71%
Rainfall 0.00 in
Snow Depth Not available.
6:18 AM 7:32 PM
Waning Crescent, 14% visible
METAR KJFK 281551Z 19006KT 10SM FEW040 SCT250 28/17 A3027 RMK AO2 SLP250 T02780172 $
Pressure 30.27 in
Visibility 10.0 miles
Clouds Few 4000 ft
Scattered Clouds 25000 ft
Heat Index 89 °F
Dew Point 73 °F
Humidity 71%
Rainfall 0.00 in
Snow Depth Not available.
6:18 AM 7:32 PM
Waning Crescent, 14% visible
METAR KJFK 281551Z 19006KT 10SM FEW040 SCT250 28/17 A3027 RMK AO2 SLP250 T02780172 $

10-Day Weather Forecast

Almanac

Astronomy

Aug. 28, 2016 Rise Set
Actual Time
Civil Twilight
Nautical Twilight
Astronomical Twilight
Moon
Length of Visible Light
Length of Day
Tomorrow will be .
, % of the Moon is Illuminated

Today's Extremes

State Highs State Lows

Community

WunderPhotos

Upload Photos

1,935,627 photos uploaded!

WunderBlog® & News

Nearby

Air Quality

  Air Quality AQ Index Pollutant
Not available.

Snow Depth

Station Depth Elevation

Earthquake Activity

City Distance Mag. Time & Date
Minimum magnitude displayed is 2.5.

Coastal Water Temperatures

Place Temperature

Stations

Nearby Weather Stations

Station Location Temp. Windchill Dew Point Humidity Wind Precip. Elev Updated Type
                   

Watches & Warnings

There are currently no watches in effect.